createdAt,value
2022-07-30T00:05:17.713Z,84
2022-07-30T00:10:57.871Z,102
2022-07-30T00:16:38.972Z,100
2022-07-30T00:22:19.337Z,102
2022-07-30T00:27:59.644Z,110
2022-07-30T00:33:39.555Z,104
2022-07-30T00:39:19.810Z,106
2022-07-30T00:44:59.740Z,104
2022-07-30T00:50:39.761Z,92
2022-07-30T00:56:19.814Z,110
2022-07-30T01:02:00.706Z,104
2022-07-30T01:19:01.273Z,102
2022-07-30T01:24:41.360Z,94
2022-07-30T01:30:21.500Z,100
2022-07-30T01:36:01.780Z,110
2022-07-30T01:41:42.241Z,92
2022-07-30T01:47:22.218Z,100
2022-07-30T01:53:02.277Z,92
2022-07-30T01:58:42.420Z,94
2022-07-30T02:04:22.745Z,94
2022-07-30T02:10:03.023Z,102
2022-07-30T02:15:43.370Z,116
2022-07-30T02:21:37.467Z,96
2022-07-30T02:27:17.810Z,98
2022-07-30T02:32:57.965Z,100
2022-07-30T02:38:38.557Z,100
2022-07-30T02:44:18.708Z,90
2022-07-30T02:49:58.917Z,88
2022-07-30T03:07:11.408Z,104
2022-07-30T03:12:52.006Z,116
2022-07-30T03:18:32.663Z,96
2022-07-30T03:24:13.062Z,114
2022-07-30T03:29:53.346Z,98
2022-07-30T03:35:34.042Z,94
2022-07-30T03:41:14.455Z,98
2022-07-30T03:46:56.441Z,112
2022-07-30T03:52:41.851Z,102
2022-07-30T03:58:22.126Z,104
2022-07-30T04:09:43.374Z,98
2022-07-30T04:16:43.980Z,98
2022-07-30T04:22:25.921Z,98
2022-07-30T04:28:05.936Z,98
2022-07-30T04:45:06.467Z,100
2022-07-30T04:50:46.965Z,116
2022-07-30T04:56:27.300Z,112
2022-07-30T05:02:08.577Z,94
2022-07-30T05:07:48.683Z,96
2022-07-30T05:13:46.780Z,98
2022-07-30T05:19:27.426Z,94
2022-07-30T05:25:16.921Z,96
2022-07-30T05:30:59.818Z,98
2022-07-30T05:36:41.568Z,102
2022-07-30T05:42:21.654Z,90
2022-07-30T05:48:02.073Z,124
2022-07-30T05:53:42.228Z,98
2022-07-30T05:59:22.250Z,104
2022-07-30T06:05:03.390Z,106
2022-07-30T06:10:44.090Z,100
2022-07-30T06:39:10.129Z,106
2022-07-30T06:44:50.426Z,104
2022-07-30T06:50:30.682Z,110
2022-07-30T06:56:10.906Z,112
2022-07-30T07:01:51.800Z,98
2022-07-30T07:08:00.294Z,104
2022-07-30T07:13:41.090Z,92
2022-07-30T07:20:03.574Z,80
2022-07-30T07:25:46.314Z,70
2022-07-30T07:32:09.205Z,114
2022-07-30T07:37:49.738Z,48
2022-07-30T07:54:52.614Z,100
2022-07-30T08:00:34.634Z,48
2022-07-30T08:06:16.315Z,18
2022-07-30T08:11:56.627Z,78
2022-07-30T08:17:38.965Z,20
2022-07-30T08:23:20.485Z,10
2022-07-30T08:29:02.077Z,14
2022-07-30T08:34:42.632Z,22
2022-07-30T08:40:22.314Z,82
2022-07-30T08:46:02.621Z,6
2022-07-30T08:51:43.954Z,36
2022-07-30T08:57:23.911Z,20
2022-07-30T09:03:04.655Z,24
2022-07-30T09:08:44.400Z,64
2022-07-30T09:14:36.441Z,4
2022-07-30T09:20:16.947Z,4
2022-07-30T09:25:57.453Z,6
2022-07-30T09:31:55.029Z,16
2022-07-30T09:37:35.133Z,4
2022-07-30T09:43:18.874Z,20
2022-07-30T09:49:09.264Z,2
2022-07-30T09:55:03.965Z,10
2022-07-30T10:12:24.927Z,2
2022-07-30T10:18:22.102Z,2
2022-07-30T10:24:12.200Z,0
2022-07-30T10:30:06.000Z,2
2022-07-30T10:36:02.467Z,6
2022-07-30T10:41:55.014Z,10
2022-07-30T10:47:56.548Z,16
2022-07-30T10:53:54.456Z,6
2022-07-30T10:59:45.734Z,0
2022-07-30T11:05:49.132Z,4
2022-07-30T11:12:19.921Z,10
2022-07-30T11:23:57.465Z,0
2022-07-30T11:29:58.950Z,4
2022-07-30T11:35:44.558Z,4
2022-07-30T11:41:28.823Z,0
2022-07-30T11:47:12.298Z,6
2022-07-30T11:53:00.741Z,14
2022-07-30T11:58:41.295Z,2
2022-07-30T12:04:29.189Z,8
2022-07-30T12:15:15.658Z,12
2022-07-30T12:21:02.935Z,4
2022-07-30T12:26:43.420Z,10
2022-07-30T12:32:24.351Z,4
2022-07-30T12:38:04.522Z,2
2022-07-30T12:43:50.613Z,8
2022-07-30T12:49:54.199Z,14
2022-07-30T12:55:42.243Z,0
2022-07-30T13:01:23.451Z,24
2022-07-30T13:07:26.620Z,14
2022-07-30T13:13:07.346Z,10
2022-07-30T13:19:06.131Z,6
2022-07-30T13:24:46.736Z,0
2022-07-30T13:30:37.879Z,0
2022-07-30T13:36:32.053Z,0
2022-07-30T13:53:44.872Z,0
2022-07-30T13:59:31.159Z,0
2022-07-30T14:05:23.156Z,4
2022-07-30T14:11:03.603Z,2
2022-07-30T14:16:57.676Z,28
2022-07-30T14:22:45.094Z,86
2022-07-30T14:28:40.322Z,94
2022-07-30T14:35:15.427Z,90
2022-07-30T14:53:23.295Z,4
2022-07-30T14:59:03.832Z,2
2022-07-30T15:04:44.059Z,2
2022-07-30T15:10:29.317Z,10
2022-07-30T15:39:16.443Z,4
2022-07-30T15:45:26.186Z,10
2022-07-30T15:51:11.898Z,14
2022-07-30T15:57:02.114Z,90
2022-07-30T16:02:42.527Z,92
2022-07-30T16:08:22.151Z,94
2022-07-30T16:14:01.860Z,90
2022-07-30T16:19:45.780Z,84
2022-07-30T16:25:26.244Z,90
2022-07-30T16:31:06.616Z,92
2022-07-30T16:36:49.995Z,94
2022-07-30T16:42:30.071Z,82
2022-07-30T16:48:10.782Z,90
2022-07-30T16:53:50.985Z,94
2022-07-30T16:59:31.091Z,96
2022-07-30T17:05:14.787Z,86
2022-07-30T17:22:20.063Z,98
2022-07-30T17:28:00.564Z,92
2022-07-30T17:33:42.462Z,90
2022-07-30T17:40:35.520Z,110
2022-07-30T17:46:16.608Z,104
2022-07-30T17:51:56.747Z,92
2022-07-30T17:57:40.297Z,98
2022-07-30T18:03:20.744Z,80
2022-07-30T18:09:14.820Z,98
2022-07-30T18:15:08.863Z,100
2022-07-30T18:20:50.110Z,94
2022-07-30T18:32:55.399Z,76
2022-07-30T18:38:43.001Z,94
2022-07-30T18:44:33.359Z,78
2022-07-30T18:50:30.017Z,78
2022-07-30T18:56:24.809Z,76
2022-07-30T19:02:24.669Z,82
2022-07-30T19:08:18.072Z,92
2022-07-30T19:14:20.058Z,100
2022-07-30T19:20:09.411Z,82
2022-07-30T19:25:49.493Z,86
2022-07-30T20:15:46.749Z,82
2022-07-30T20:21:58.748Z,76
2022-07-30T20:33:57.544Z,86
2022-07-30T20:39:50.077Z,80
2022-07-30T20:45:48.877Z,84
2022-07-30T20:51:42.583Z,80
2022-07-30T20:58:17.957Z,86
2022-07-30T21:04:27.519Z,78
2022-07-30T21:10:23.916Z,72
2022-07-30T21:16:20.363Z,86
2022-07-30T21:27:44.234Z,74
2022-07-30T21:33:46.046Z,84
2022-07-30T21:39:59.758Z,68
2022-07-30T21:45:58.352Z,104
2022-07-30T21:52:09.058Z,76
2022-07-30T21:57:56.087Z,80
2022-07-30T23:12:58.613Z,80
2022-07-30T23:18:40.290Z,72
2022-07-30T23:24:20.092Z,82
2022-07-30T23:30:03.149Z,76
2022-07-30T23:35:43.188Z,90
2022-07-30T23:41:31.269Z,72
2022-07-30T23:47:11.547Z,88
2022-07-30T23:52:51.675Z,80
2022-07-30T23:58:34.605Z,94
